MyFlightRoute - Storm Chaser


To sort multiple columns, hold SHIFT key while clicking column header

ICAOVisibilityWindSpeedGustCeilingWeatherTempDew PointSpreadFlight CategoryMETAR
KABQ10.009 10.60-10.0020.6VFRKABQ 230752Z 14009KT 10SM CLR 11/M10 A3007 RMK AO2 SLP119 T01061100
KAMA10.002632 15005.001.103.9MVFRKAMA 230808Z AUTO 36026G32KT 10SM OVC015 05/01 A3012 RMK AO2 PK WND 36032/0808 T00500011
KAPA2.509 400LIGHT FREEZING DRIZZLE MIST -5.60-6.701.1LIFRKAPA 230753Z 01009KT 2 1/2SM -FZDZ BR OVC004 M06/M07 A3030 RMK AO2 SFC VIS 3 SLP300 P0000 I1003 T10561067 $
KASE10.003 1.70-7.809.5VFRKASE 230753Z AUTO 22003KT 10SM SCT100 02/M08 A3011 RMK AO2 SLP107 T00171078
KBFI10.000 5.002.802.2VFRKBFI 230753Z 00000KT 10SM CLR 05/03 A3032 RMK AO2 SLP267 T00500028 401220039 $
KBFL7.005 15.607.807.8VFRKBFL 230754Z AUTO 33005KT 7SM CLR 16/08 A2988 RMK AO2 SLP114 T01560078 402940150
KBIL10.005 -8.30-11.102.8VFRKBIL 230753Z 17005KT 10SM CLR M08/M11 A3043 RMK AO2 SLP359 T10831111 $
KBOI10.000 1.10-7.808.9VFRKBOI 230753Z 00000KT 10SM CLR 01/M08 A3028 RMK AO2 SLP261 T00111078
KBUR10.000 220017.8013.903.9MVFRKBUR 230753Z 00000KT 10SM OVC022 18/14 A2993 RMK AO2 SLP124 T01780139 402110172
KBZN10.003 -10.00-11.701.7VFRKBZN 230756Z AUTO 34003KT 10SM CLR M10/M12 A3035 RMK AO2 SLP339 T11001117
KCMA8.004 330019.4013.905.5VFRKCMA 230755Z AUTO 06004KT 8SM OVC033 19/14 A2991 RMK AO2 SLP138 T01940139 402330183
KCNO10.004 220018.3012.805.5MVFRKCNO 230753Z AUTO 24004KT 10SM OVC022 18/13 A2995 RMK AO2 SLP136 T01830128 402610161 $
KCOS10.001122 2400-2.80-8.305.5MVFRKCOS 230754Z 33011G22KT 10SM FEW015 OVC024 M03/M08 A3023 RMK AO2 SLP223 T10281083
KCPR10.007 2200-14.40-15.601.2MVFRKCPR 230753Z AUTO 35007KT 10SM BKN022 M14/M16 A3036 RMK AO2 SNE03 SLP355 P0000 T11441156
KCRQ10.000 240019.4012.806.6MVFRKCRQ 230753Z AUTO 00000KT 10SM OVC024 19/13 A2992 RMK AO2 SLP127 T01940128 402170183
KDEN10.008 1800-5.60-8.903.3MVFRKDEN 230753Z 01008KT 10SM OVC018 M06/M09 A3033 RMK AO2 SLP288 T10561089 $
KEGE10.004 3.30-8.3011.6VFRKEGE 230756Z AUTO 28004KT 10SM CLR 03/M08 A3015 RMK AO2 SLP178 T00331083 PNO $
KELP10.006 22.201.1021.1VFRKELP 230751Z 28006KT 10SM FEW240 22/01 A3000 RMK AO2 SLP083 T02220011
KEMT10.007 19.0014.005VFRKEMT 230256Z 20007KT 10SM CLR 19/14 A2992
KEUG10.008 5.001.703.3VFRKEUG 230754Z AUTO 02008KT 10SM CLR 05/02 A3026 RMK AO2 SLP248 T00500017 401391011
KFAT10.004 2500016.705.0011.7VFRKFAT 230753Z 30004KT 10SM BKN250 17/05 A2988 RMK AO2 SLP114 T01670050 402890150
KFLG10.000 2.20-2.204.4VFRKFLG 230757Z AUTO 00000KT 10SM CLR 02/M02 A3017 RMK AO2 SLP146 T00221022 TSNO
KFMN10.004 4.40-12.8017.2VFRKFMN 230753Z AUTO 04004KT 10SM CLR 04/M13 A3003 RMK AO2 SLP135 T00441128
KFUL10.000 280020.0013.906.1MVFRKFUL 230753Z AUTO 00000KT 10SM OVC028 20/14 A2991 RMK AO2 SLP129 T02000139 402500178
KGCN10.000 1.70-6.708.4VFRKGCN 230754Z AUTO 00000KT 10SM CLR 02/M07 A3015 RMK AO2 SLP142 T00171067
KGEG10.000 -1.10-3.302.2VFRKGEG 230753Z 00000KT 10SM FEW090 M01/M03 A3032 RMK AO2 SLP286 T10111033 400671022
KGJT10.004 9.40-9.4018.8VFRKGJT 230753Z AUTO VRB04KT 10SM CLR 09/M09 A3006 RMK AO2 SLP132 T00941094
KGPI10.000 4900-2.20-5.002.8VFRKGPI 230755Z AUTO 00000KT 10SM BKN049 OVC060 M02/M05 A3034 RMK AO2 SLP304 T10221050
KHHR10.000 260019.4014.405MVFRKHHR 230753Z AUTO 00000KT 10SM OVC026 19/14 A2993 RMK AO2 SLP132 T01940144 402170183
KHLN10.000 8000-5.60-9.403.8VFRKHLN 230753Z AUTO 00000KT 10SM OVC080 M06/M09 A3035 RMK AO2 SLP342 T10561094
KHND10.007 18.90-5.6024.5VFRKHND 230756Z AUTO 22007KT 10SM CLR 19/M06 A2989 RMK AO2 SLP116 T01891056 403170167
KIFP10.003 23.006.0017VFRKIFP 230810Z AUTO 15003KT 10SM CLR 23/06 A2979 RMK AO2
KINS10.003 13.70-10.2023.9VFRKINS 230758Z AUTO 26003KT 10SM CLR 14/M10 A2991 RMK AO2 SLP090 T01371102 402970090 $
KJAC10.003 -9.40-12.803.4VFRKJAC 230756Z AUTO 09003KT 10SM CLR M09/M13 A3027 RMK AO2 SLP307 T10941128 FZRANO
KLAS8.005 20.60-2.8023.4VFRKLAS 230756Z 20005KT 8SM CLR 21/M03 A2986 RMK AO2 SLP091 FU AND HZ DSNT ALQDS T02061028 403170161
KLAX10.000 260018.9013.905MVFRKLAX 230753Z 00000KT 10SM FEW015 OVC026 19/14 A2992 RMK AO2 SLP130 T01890139 402110183
KLGB10.000 260019.4013.905.5MVFRKLGB 230753Z AUTO 00000KT 10SM OVC026 19/14 A2992 RMK AO2 SLP132 T01940139 402330189
KLSV10.007 18.00-4.0022VFRKLSV 230758Z 05007KT 10SM CLR 18/M04 A2986 RMK SLPNO WND DATA ESTMD ALSTG/SLP ESTMD 403220117 $
KMFR10.000 6.70-2.208.9VFRKMFR 230753Z AUTO 00000KT 10SM CLR 07/M02 A3016 RMK AO2 SLP213 T00671022 401780017
KMHV10.000 14.001.0013VFRKMHV 230800Z AUTO 00000KT 10SM CLR 14/01 A2991 RMK A01
KMRY10.006 120015.0012.802.2MVFRKMRY 230805Z AUTO 13006KT 10SM OVC012 15/13 A2994 RMK AO2 T01500128
KMSO10.000 -4.40-6.101.7VFRKMSO 230753Z AUTO 00000KT 10SM SCT045 M04/M06 A3036 RMK AO2 SLP315 T10441061
KMYF10.004 240018.9012.806.1MVFRKMYF 230753Z AUTO 25004KT 10SM OVC024 19/13 A2993 RMK AO2 SLP131 T01890128 402280183
KNYL10.004 23.3015.607.7VFRKNYL 230757Z AUTO 15004KT 10SM CLR 23/16 A2979 RMK AO2 SLP083 T02330156 $
KOAK10.005 14.4011.103.3VFRKOAK 230825Z 36005KT 10SM SCT012 14/11 A2993 RMK AO2 T01440111
KOLM0.500 100FOG 0.600.000.6LIFRKOLM 230828Z AUTO 00000KT 1/2SM FG VV001 01/00 A3030 RMK AO2 T00060000
KONT10.006 180017.8013.304.5MVFRKONT 230753Z 29006KT 10SM OVC018 18/13 A2993 RMK AO2 SLP127 T01780133 402390167
KOTH10.005 5.603.302.3VFRKOTH 230756Z AUTO 04005KT 10SM CLR 06/03 A3023 RMK AO2 SLP234 T00560033 401500033
KOXR9.004 340016.7013.902.8VFRKOXR 230751Z AUTO 05004KT 9SM OVC034 17/14 A2992 RMK AO2 SLP129 T01670139 402110167
KPAE10.007 120005.002.802.2VFRKPAE 230753Z AUTO 11007KT 10SM BKN120 05/03 A3030 RMK AO2 SLP265 T00500028 401060033
KPDX10.003 4.402.202.2VFRKPDX 230753Z 27003KT 10SM CLR 04/02 A3030 RMK AO2 SLP258 T00440022 401390022
KPHX10.000 23.906.7017.2VFRKPHX 230751Z 00000KT 10SM CLR 24/07 A2983 RMK AO2 SLP083 T02390067
KPOC10.005 20.0013.007VFRKPOC 230047Z 26005KT 10SM CLR 20/13 A2991 RMK LAST
KPRC10.006 11.703.308.4VFRKPRC 230753Z AUTO 19006KT 10SM CLR 12/03 A3007 RMK AO2 SLP112 T01170033
KPSC10.005 -2.20-3.901.7VFRKPSC 230753Z AUTO 35005KT 10SM CLR M02/M04 A3036 RMK AO2 SLP284 T10221039 401331033
KPSP10.000 21.1012.208.9VFRKPSP 230753Z AUTO 00000KT 10SM CLR 21/12 A2981 RMK AO2 SLP093 T02110122 403330178
KRAL10.000 190016.1012.203.9MVFRKRAL 230753Z AUTO 00000KT 10SM OVC019 16/12 A2994 RMK AO2 SLP125 T01610122 402390156
KRDD10.00816 18.30-7.8026.1VFRKRDD 230753Z AUTO 35008G16KT 10SM CLR 18/M08 A2995 RMK AO2 SLP137 T01831078 402390156
KRIV10.000 130013.7011.202.5MVFRKRIV 230758Z AUTO 00000KT 10SM OVC013 14/11 A2994 RMK AO2 OVC V BKN CIG 012 RWY14 SLP131 T01370112 402440104
KRNM10.003 150016.1012.203.9MVFRKRNM 230830Z AUTO VRB03KT 10SM OVC015 16/12 A2994 RMK AO2 T01610122
KRNO10.000 4.40-6.1010.5VFRKRNO 230755Z 00000KT 10SM FEW250 04/M06 A3016 RMK AO2 SLP199 T00441061 401560044
KSAC10.000 12.20-0.6012.8VFRKSAC 230753Z AUTO 00000KT 10SM CLR 12/M01 A2988 RMK AO2 SLP117 T01221006 402670122
KSAN10.003 280021.1012.808.3MVFRKSAN 230751Z 19003KT 10SM OVC028 21/13 A2993 RMK AO2 SLP136 T02110128 402280200
KSBA10.000 280017.8014.403.4MVFRKSBA 230753Z AUTO 00000KT 10SM OVC028 18/14 A2991 RMK AO2 SLP129 T01780144 402170167 $
KSBD10.004 180017.6012.505.1MVFRKSBD 230820Z AUTO 27004KT 10SM OVC018 18/13 A2994 RMK AO2 T01760125
KSBP10.000 180017.2013.303.9MVFRKSBP 230756Z AUTO 00000KT 10SM OVC018 17/13 A2992 RMK AO2 SLP130 T01720133 401890139
KSDM10.003 230018.3012.805.5MVFRKSDM 230753Z AUTO 28003KT 10SM OVC023 18/13 A2992 RMK AO2 SLP129 T01830128 402330178
KSEA10.005 5.002.802.2VFRKSEA 230753Z 13005KT 10SM CLR 05/03 A3031 RMK AO2 SLP272 T00500028 401220044
KSEE10.004 240019.0013.006MVFRKSEE 230815Z AUTO 14004KT 10SM OVC024 19/13 A2992 RMK AO2
KSFO10.005 13.3010.003.3VFRKSFO 230756Z 30005KT 10SM CLR 13/10 A2991 RMK AO2 SLP129 T01330100 402280128
KSJC10.000 140015.0011.103.9MVFRKSJC 230753Z AUTO 00000KT 10SM OVC014 15/11 A2992 RMK AO2 SLP129 T01500111 402670128
KSLC10.003 1.70-6.107.8VFRKSLC 230754Z 34003KT 10SM FEW200 02/M06 A3023 RMK AO2 SLP234 T00171061 $
KSMF10.007 13.90-3.3017.2VFRKSMF 230753Z 34007KT 10SM FEW250 14/M03 A2987 RMK AO2 SLP113 T01391033 402670139
KSMO10.000 260017.8015.002.8MVFRKSMO 230751Z AUTO 00000KT 10SM OVC026 18/15 A2993 RMK AO2 SLP132 T01780150 402110167
KSMX8.003 220016.7012.803.9MVFRKSMX 230751Z AUTO 30003KT 8SM OVC022 17/13 A2992 RMK AO2 SLP134 T01670128 401940144
KSNA10.005 260020.6013.307.3MVFRKSNA 230753Z AUTO 15005KT 10SM OVC026 21/13 A2992 RMK AO2 SLP130 T02060133 402390200
KSUN10.004 -2.00-8.006VFRKSUN 230815Z AUTO 33004KT 10SM CLR M02/M08 A3028 RMK AO2
KTOA10.004 350020.0016.004VFRKTOA 230049Z 25004KT 10SM FEW020 BKN035 20/16 A2988 RMK LAST
KTPH10.008 6.70-8.3015VFRKTPH 230756Z AUTO 33008KT 10SM CLR 07/M08 A3010 RMK AO2 SLP156 T00671083 402060033
KTUS10.006 20.602.2018.4VFRKTUS 230753Z 14006KT 10SM CLR 21/02 A2997 RMK AO2 SLP105 T02060022
KVCV10.007 0.000.000VFRKVCV 230247Z 18007KT 10SM SKC A2989
KVGT10.004 20.60-4.4025VFRKVGT 230753Z AUTO 34004KT 10SM CLR 21/M04 A2983 RMK AO2 SLP099 T02061044 403170150
KVNY10.000 220017.8013.304.5MVFRKVNY 230751Z AUTO 00000KT 10SM OVC022 18/13 A2993 RMK AO2 SLP127 T01780133 402280178
KWHP10.000 18.0013.005VFRKWHP 230250Z 00000KT 10SM SCT030 18/13 A2994
KWJF10.0012 15.6010.005.6VFRKWJF 230756Z AUTO 26012KT 10SM CLR 16/10 A2991 RMK AO2 SLP112 T01560100 403000089
KYKM10.007 -1.10-5.604.5VFRKYKM 230753Z AUTO 30007KT 10SM CLR M01/M06 A3033 RMK AO2 SLP281 T10111056 401281039